Time;durP1;ratioP1;P1;durP2;ratioP2;P2;SDS_P1;SDS_P2;PMS_P1;PMS_P2;Temp;Humidity;BMP_temperature;BMP_pressure;BME280_temperature;BME280_humidity;BME280_pressure;Samples;Min_cycle;Max_cycle;Signal;HPM_P1;HPM_P2
2022/07/12 00:01:26;;;;;;;13.30;5.47;;;18.00;81.90;;;;;;5076340;28;20577;-73
2022/07/12 00:03:52;;;;;;;9.80;5.60;;;18.00;82.20;;;;;;5084621;28;20237;-73
2022/07/12 00:06:17;;;;;;;8.20;5.70;;;18.00;82.20;;;;;;5090754;28;20176;-74
2022/07/12 00:08:43;;;;;;;7.73;5.70;;;18.00;81.90;;;;;;5087593;28;20251;-73
2022/07/12 00:11:09;;;;;;;10.37;4.90;;;17.90;82.40;;;;;;5084556;28;20176;-75
2022/07/12 00:13:34;;;;;;;7.73;4.67;;;17.80;82.50;;;;;;5083109;28;20215;-74
2022/07/12 00:16:00;;;;;;;7.23;4.83;;;17.80;82.70;;;;;;5070911;28;20886;-73
2022/07/12 00:18:26;;;;;;;7.80;5.47;;;17.70;83.00;;;;;;5082930;28;20644;-73
2022/07/12 00:20:51;;;;;;;6.90;4.87;;;17.70;83.10;;;;;;5084786;28;20557;-72
2022/07/12 00:23:17;;;;;;;6.97;5.10;;;17.70;83.00;;;;;;5080142;28;20251;-74
2022/07/12 00:25:43;;;;;;;7.97;4.50;;;17.80;83.00;;;;;;5085667;28;20179;-72
2022/07/12 00:28:09;;;;;;;9.80;5.90;;;17.70;83.00;;;;;;5082830;28;20232;-73
2022/07/12 00:30:34;;;;;;;7.63;5.27;;;17.70;83.10;;;;;;5059723;28;20529;-72
2022/07/12 00:33:00;;;;;;;7.87;5.23;;;17.70;83.10;;;;;;5080548;28;20203;-73
2022/07/12 00:35:26;;;;;;;6.93;4.90;;;17.70;83.10;;;;;;5086346;28;20555;-73
2022/07/12 00:37:52;;;;;;;7.30;5.00;;;17.60;83.30;;;;;;5086456;28;20751;-73
2022/07/12 00:40:17;;;;;;;8.67;4.57;;;17.70;83.30;;;;;;5083038;28;20515;-73
2022/07/12 00:42:43;;;;;;;7.43;4.73;;;17.70;83.30;;;;;;5083256;28;20342;-72
2022/07/12 00:45:09;;;;;;;8.00;5.03;;;17.70;83.00;;;;;;5085330;28;20188;-73
2022/07/12 00:47:40;;;;;;;5.60;4.33;;;17.70;83.00;;;;;;5081695;28;20183;-73
2022/07/12 00:50:19;;;;;;;5.97;4.27;;;17.70;83.00;;;;;;5067231;28;20229;-73
2022/07/12 00:52:47;;;;;;;7.70;4.93;;;17.60;83.00;;;;;;5077847;28;20508;-74
2022/07/12 00:55:13;;;;;;;6.93;4.47;;;17.60;83.10;;;;;;5079814;28;20444;-74
2022/07/12 00:57:39;;;;;;;5.90;3.97;;;17.60;83.30;;;;;;5088608;28;20783;-74
2022/07/12 01:00:09;;;;;;;5.23;4.13;;;17.70;83.10;;;;;;5076764;28;20469;-75
2022/07/12 01:02:35;;;;;;;5.50;4.17;;;17.60;83.00;;;;;;5083725;28;21398;-74
2022/07/12 01:05:03;;;;;;;6.93;4.63;;;17.60;83.10;;;;;;5076560;28;20846;-74
2022/07/12 01:07:29;;;;;;;6.13;4.33;;;17.60;83.00;;;;;;5087319;28;20502;-73
2022/07/12 01:09:55;;;;;;;6.80;4.40;;;17.50;83.00;;;;;;5081570;28;20506;-73
2022/07/12 01:12:22;;;;;;;6.10;4.23;;;17.60;83.30;;;;;;5076106;28;20733;-73
2022/07/12 01:14:49;;;;;;;5.37;3.97;;;17.60;83.10;;;;;;5068860;28;20428;-73
2022/07/12 01:17:18;;;;;;;6.17;4.10;;;17.60;83.10;;;;;;5083722;28;20424;-73
2022/07/12 01:19:44;;;;;;;7.60;5.10;;;17.70;83.00;;;;;;5079109;28;20830;-73
2022/07/12 01:22:13;;;;;;;5.30;4.17;;;17.60;83.00;;;;;;5084039;28;20417;-74
2022/07/12 01:24:39;;;;;;;7.17;4.93;;;17.60;83.00;;;;;;5066331;28;20429;-73
2022/07/12 01:27:05;;;;;;;6.37;4.57;;;17.60;83.00;;;;;;5083201;28;20431;-73
2022/07/12 01:29:31;;;;;;;7.23;4.07;;;17.50;83.30;;;;;;5084248;28;20218;-74
2022/07/12 01:32:24;;;;;;;4.40;3.73;;;17.60;83.30;;;;;;5080766;28;20777;-74
2022/07/12 01:34:47;;;;;;;7.50;5.33;;;17.50;83.30;;;;;;5082220;28;20502;-73
2022/07/12 01:37:15;;;;;;;6.03;4.40;;;17.40;83.70;;;;;;5078083;28;20426;-74
2022/07/12 01:39:41;;;;;;;6.67;5.00;;;17.40;83.80;;;;;;5086747;28;20545;-73
2022/07/12 01:42:06;;;;;;;8.03;5.20;;;17.30;84.10;;;;;;5060105;28;20424;-72
2022/07/12 01:44:32;;;;;;;9.13;5.13;;;17.20;84.40;;;;;;5079234;28;20438;-72
2022/07/12 01:46:58;;;;;;;8.50;5.70;;;17.20;84.60;;;;;;5085297;28;20186;-74
2022/07/12 01:49:24;;;;;;;7.00;4.70;;;17.10;84.60;;;;;;5094062;28;20442;-73
2022/07/12 01:51:50;;;;;;;6.97;4.87;;;17.00;85.00;;;;;;5085474;28;20498;-73
2022/07/12 01:54:15;;;;;;;7.43;5.37;;;17.00;85.20;;;;;;5087363;28;20242;-73
2022/07/12 01:56:41;;;;;;;8.00;5.80;;;17.00;85.00;;;;;;5073162;28;20233;-73
2022/07/12 01:59:07;;;;;;;8.47;5.67;;;16.90;85.50;;;;;;5086735;28;20203;-75
2022/07/12 02:01:33;;;;;;;8.10;5.40;;;16.80;85.60;;;;;;5095715;28;20454;-74
2022/07/12 02:04:03;;;;;;;8.00;5.20;;;16.80;85.70;;;;;;5091833;28;20490;-72
2022/07/12 02:06:30;;;;;;;7.80;5.53;;;16.80;86.00;;;;;;5085812;28;20441;-72
2022/07/12 02:08:55;;;;;;;7.60;5.03;;;16.80;86.00;;;;;;5072901;28;20979;-73
2022/07/12 02:11:21;;;;;;;8.87;6.10;;;16.80;86.00;;;;;;5084859;28;20457;-73
2022/07/12 02:13:47;;;;;;;10.00;5.10;;;16.70;86.30;;;;;;5080676;28;20298;-73
2022/07/12 02:16:12;;;;;;;7.43;4.80;;;16.60;86.50;;;;;;5088752;28;20203;-74
2022/07/12 02:18:38;;;;;;;7.50;5.30;;;16.60;86.90;;;;;;5070592;28;20209;-74
2022/07/12 02:21:04;;;;;;;7.33;5.03;;;16.70;86.60;;;;;;5086087;28;20210;-75
2022/07/12 02:23:29;;;;;;;7.80;5.30;;;16.60;86.80;;;;;;5092494;28;20226;-73
2022/07/12 02:25:55;;;;;;;10.37;5.70;;;16.40;87.40;;;;;;5087811;28;20330;-75
2022/07/12 02:28:20;;;;;;;9.97;5.90;;;16.30;87.80;;;;;;5092076;28;20215;-73
2022/07/12 02:30:46;;;;;;;7.23;5.30;;;16.20;88.10;;;;;;5094786;28;20194;-74
2022/07/12 02:33:15;;;;;;;9.90;5.47;;;16.20;88.30;;;;;;5088056;28;20205;-73
2022/07/12 02:35:41;;;;;;;6.53;4.70;;;16.20;88.40;;;;;;5090662;28;20415;-74
2022/07/12 02:38:07;;;;;;;4.73;3.40;;;16.20;88.40;;;;;;5086390;28;20420;-73
2022/07/12 02:43:17;;;;;;;4.10;2.47;;;16.20;88.00;;;;;;5080559;28;20216;-73
2022/07/12 02:45:43;;;;;;;5.90;4.00;;;16.20;88.00;;;;;;5093236;28;20419;-73
2022/07/12 02:48:10;;;;;;;7.63;4.73;;;16.20;87.70;;;;;;5086137;28;20171;-74
2022/07/12 02:50:37;;;;;;;5.87;5.00;;;16.20;87.70;;;;;;5091550;28;20708;-74
2022/07/12 02:53:03;;;;;;;6.27;4.47;;;16.10;87.80;;;;;;5082425;28;20468;-74
2022/07/12 02:55:29;;;;;;;6.83;3.90;;;16.20;87.80;;;;;;5088826;28;20433;-72
2022/07/12 02:57:54;;;;;;;6.50;4.70;;;16.20;87.70;;;;;;5094174;28;20501;-74
2022/07/12 03:00:20;;;;;;;4.67;3.50;;;16.20;88.00;;;;;;5071577;28;20228;-73
2022/07/12 03:02:45;;;;;;;4.50;3.27;;;16.20;87.70;;;;;;5077225;28;20511;-73
2022/07/12 03:05:11;;;;;;;3.00;2.63;;;16.20;87.70;;;;;;5084030;28;20207;-75
2022/07/12 03:07:36;;;;;;;7.80;2.87;;;16.20;87.70;;;;;;5088105;28;20189;-74
2022/07/12 03:10:04;;;;;;;3.50;2.60;;;16.30;87.40;;;;;;5087642;28;20198;-74
2022/07/12 03:12:29;;;;;;;5.10;3.00;;;16.30;87.10;;;;;;5079989;28;20217;-73
2022/07/12 03:14:55;;;;;;;4.53;3.70;;;16.20;87.10;;;;;;5086067;28;20433;-72
2022/07/12 03:17:21;;;;;;;4.63;3.20;;;16.20;87.30;;;;;;5082919;28;20180;-72
2022/07/12 03:19:47;;;;;;;4.40;3.03;;;16.20;87.30;;;;;;5086441;28;20997;-73
2022/07/12 03:22:12;;;;;;;4.20;2.83;;;16.20;87.30;;;;;;5085544;28;20511;-72
2022/07/12 03:24:38;;;;;;;5.63;3.63;;;16.20;87.30;;;;;;5089084;28;20192;-72
2022/07/12 03:27:03;;;;;;;6.23;3.33;;;16.30;87.30;;;;;;5083649;28;20190;-73
2022/07/12 03:29:29;;;;;;;3.87;2.60;;;16.30;87.10;;;;;;5083262;28;20217;-74
2022/07/12 03:31:55;;;;;;;5.07;2.63;;;16.30;87.00;;;;;;5092929;28;20186;-74
2022/07/12 03:34:20;;;;;;;5.20;3.57;;;16.30;87.00;;;;;;5085512;28;20202;-73
2022/07/12 03:36:46;;;;;;;7.00;3.90;;;16.30;87.00;;;;;;5097029;28;20290;-74
2022/07/12 03:39:11;;;;;;;5.90;3.63;;;16.30;86.80;;;;;;5100762;28;20220;-73
2022/07/12 03:41:37;;;;;;;5.13;3.50;;;16.20;86.80;;;;;;5096799;28;20208;-74
2022/07/12 03:44:03;;;;;;;3.87;3.00;;;16.20;86.90;;;;;;5084824;28;20206;-72
2022/07/12 03:46:29;;;;;;;5.40;4.10;;;16.10;87.10;;;;;;5068973;28;20448;-73
2022/07/12 03:48:55;;;;;;;9.03;4.63;;;16.10;87.40;;;;;;5082733;28;20794;-73
2022/07/12 03:51:20;;;;;;;5.83;4.33;;;16.10;87.40;;;;;;5085448;28;20275;-72
2022/07/12 03:53:46;;;;;;;5.83;3.83;;;16.10;87.60;;;;;;5080733;28;20327;-73
2022/07/12 03:57:13;;;;;;;7.00;4.60;;;16.20;87.40;;;;;;5061705;28;20192;-73
2022/07/12 03:58:57;;;;;;;4.80;2.70;;;16.20;87.00;;;;;;5076508;28;20249;-74
2022/07/12 04:01:22;;;;;;;6.37;2.97;;;16.30;87.00;;;;;;5083600;28;20609;-72
2022/07/12 04:03:48;;;;;;;4.07;2.83;;;16.30;87.00;;;;;;5079803;28;20218;-72
2022/07/12 04:06:14;;;;;;;4.60;3.03;;;16.30;87.10;;;;;;5089957;28;20185;-74
2022/07/12 04:08:39;;;;;;;6.40;2.93;;;16.30;87.10;;;;;;5084990;28;20629;-72
2022/07/12 04:11:06;;;;;;;4.57;2.90;;;16.30;87.10;;;;;;5086857;28;20844;-72
2022/07/12 04:13:33;;;;;;;3.57;2.80;;;16.20;87.40;;;;;;5076827;28;20213;-74
2022/07/12 04:15:58;;;;;;;4.60;3.50;;;16.30;87.60;;;;;;5082167;28;20419;-73
2022/07/12 04:18:24;;;;;;;5.03;3.03;;;16.30;87.60;;;;;;5088325;28;20516;-73
2022/07/12 04:20:50;;;;;;;5.00;3.77;;;16.30;87.70;;;;;;5080307;28;20645;-72
2022/07/12 04:23:16;;;;;;;6.03;4.00;;;16.30;87.80;;;;;;5074009;28;20456;-73
2022/07/12 04:25:41;;;;;;;6.73;3.70;;;16.30;87.80;;;;;;5078639;28;20191;-72
2022/07/12 04:28:07;;;;;;;6.13;3.73;;;16.30;88.00;;;;;;5083702;28;20195;-73
2022/07/12 04:30:33;;;;;;;7.33;4.43;;;16.30;88.30;;;;;;5066714;28;20584;-72
2022/07/12 04:32:58;;;;;;;7.10;4.30;;;16.20;88.40;;;;;;5082154;28;20463;-72
2022/07/12 04:35:24;;;;;;;8.07;4.63;;;16.10;88.70;;;;;;5084196;28;20183;-74
2022/07/12 04:37:50;;;;;;;6.53;4.90;;;16.20;89.00;;;;;;5085792;28;20724;-75
2022/07/12 04:40:15;;;;;;;8.90;4.50;;;16.10;89.00;;;;;;5083213;28;20218;-73
2022/07/12 04:42:41;;;;;;;7.80;4.93;;;16.20;89.30;;;;;;5086360;28;20208;-74
2022/07/12 04:45:07;;;;;;;5.80;4.13;;;16.30;89.20;;;;;;5082210;28;20183;-75
2022/07/12 04:47:36;;;;;;;5.87;4.37;;;16.40;88.90;;;;;;5085642;28;20183;-76
2022/07/12 04:50:07;;;;;;;5.80;4.33;;;16.40;88.60;;;;;;5085265;28;20422;-76
2022/07/12 04:52:34;;;;;;;9.73;5.63;;;16.50;87.10;;;;;;5084872;28;20551;-76
2022/07/12 04:54:59;;;;;;;7.60;4.90;;;16.60;86.50;;;;;;5089437;28;20422;-75
2022/07/12 04:57:25;;;;;;;6.13;4.53;;;16.50;86.50;;;;;;5098650;28;20431;-76
2022/07/12 04:59:50;;;;;;;8.30;4.80;;;16.60;86.60;;;;;;5099019;28;20224;-75
2022/07/12 05:02:16;;;;;;;10.20;5.10;;;16.70;86.80;;;;;;5090882;28;20431;-77
2022/07/12 05:04:42;;;;;;;7.97;5.50;;;16.80;87.10;;;;;;5089997;28;20209;-76
2022/07/12 05:07:07;;;;;;;8.40;5.90;;;16.80;87.00;;;;;;5091301;28;20192;-76
2022/07/12 05:09:33;;;;;;;10.23;5.23;;;16.90;86.90;;;;;;5085705;28;20538;-75
2022/07/12 05:11:58;;;;;;;7.97;5.20;;;16.90;87.10;;;;;;5088688;28;20270;-72
2022/07/12 05:14:24;;;;;;;7.70;5.63;;;16.90;87.40;;;;;;5083724;28;20698;-72
2022/07/12 05:16:50;;;;;;;8.33;5.40;;;17.00;87.00;;;;;;5081947;28;20196;-72
2022/07/12 05:19:16;;;;;;;8.83;5.70;;;17.10;86.90;;;;;;5083218;28;20237;-73
2022/07/12 05:21:42;;;;;;;8.10;5.70;;;17.10;86.60;;;;;;5079985;28;20660;-73
2022/07/12 05:24:08;;;;;;;9.13;5.67;;;17.20;86.30;;;;;;5081651;28;20460;-74
2022/07/12 05:26:34;;;;;;;6.47;4.80;;;17.30;86.00;;;;;;5084171;28;20852;-72
2022/07/12 05:29:00;;;;;;;7.60;5.60;;;17.30;85.70;;;;;;5083808;28;20432;-72
2022/07/12 05:31:26;;;;;;;13.37;6.30;;;17.30;85.60;;;;;;5080576;28;20429;-74
2022/07/12 05:33:53;;;;;;;11.83;6.43;;;17.30;85.60;;;;;;5074304;28;20507;-74
2022/07/12 05:36:18;;;;;;;9.60;6.00;;;17.40;85.70;;;;;;5075124;28;20428;-72
2022/07/12 05:38:44;;;;;;;9.00;5.90;;;17.40;85.70;;;;;;5085244;28;21031;-73
2022/07/12 05:41:10;;;;;;;17.33;6.30;;;17.40;85.60;;;;;;5079807;28;20449;-73
2022/07/12 05:43:35;;;;;;;11.00;6.37;;;17.50;85.60;;;;;;5083456;28;20199;-73
2022/07/12 05:46:01;;;;;;;8.73;5.27;;;17.50;85.30;;;;;;5071829;28;20176;-72
2022/07/12 05:48:27;;;;;;;8.07;5.53;;;17.60;85.30;;;;;;5067738;28;20526;-73
2022/07/12 05:50:53;;;;;;;9.20;5.93;;;17.70;84.90;;;;;;5086619;28;20475;-73
2022/07/12 05:53:21;;;;;;;9.80;7.27;;;17.70;84.60;;;;;;5080641;28;20225;-72
2022/07/12 05:55:47;;;;;;;13.73;8.73;;;17.70;84.30;;;;;;5084328;28;20731;-72
2022/07/12 05:58:13;;;;;;;10.67;7.30;;;17.90;84.00;;;;;;5088553;28;20428;-72
2022/07/12 06:00:38;;;;;;;10.33;5.97;;;18.00;83.70;;;;;;5087164;28;20425;-74
2022/07/12 06:03:04;;;;;;;11.00;6.80;;;18.00;83.40;;;;;;5080440;28;20211;-73
2022/07/12 06:05:30;;;;;;;10.83;5.63;;;17.90;82.40;;;;;;5069476;28;20388;-73
2022/07/12 06:07:55;;;;;;;9.23;6.33;;;17.90;82.50;;;;;;5082898;28;20636;-74
2022/07/12 06:10:21;;;;;;;8.03;5.30;;;18.00;82.20;;;;;;5073479;28;20203;-72
2022/07/12 06:12:46;;;;;;;13.80;6.27;;;18.00;82.20;;;;;;5082707;28;20256;-74
2022/07/12 06:15:12;;;;;;;13.00;6.60;;;18.20;81.80;;;;;;5080960;28;20206;-73
2022/07/12 06:17:38;;;;;;;10.77;6.70;;;18.20;80.90;;;;;;5083954;28;20188;-74
2022/07/12 06:20:04;;;;;;;9.53;5.97;;;18.20;80.50;;;;;;5061677;28;20234;-73
2022/07/12 06:22:30;;;;;;;10.10;4.90;;;18.30;80.20;;;;;;5083614;28;20935;-73
2022/07/12 06:24:56;;;;;;;13.83;6.03;;;18.30;80.00;;;;;;5077572;28;20425;-73
2022/07/12 06:27:21;;;;;;;7.43;4.50;;;18.40;79.70;;;;;;5082835;28;20564;-73
2022/07/12 06:29:47;;;;;;;7.27;4.93;;;18.40;78.30;;;;;;5083426;28;20187;-72
2022/07/12 06:32:17;;;;;;;10.17;6.23;;;18.40;78.30;;;;;;5087165;28;20192;-73
2022/07/12 06:34:43;;;;;;;9.60;5.30;;;18.50;78.60;;;;;;5069509;28;20529;-73
2022/07/12 06:37:09;;;;;;;7.73;4.30;;;18.60;78.00;;;;;;5090559;28;20426;-73
2022/07/12 06:39:37;;;;;;;19.10;5.53;;;18.70;77.60;;;;;;5087019;28;20518;-75
2022/07/12 06:42:04;;;;;;;12.90;5.80;;;18.80;76.80;;;;;;5081807;28;20197;-74
2022/07/12 06:44:32;;;;;;;8.00;3.47;;;18.90;76.20;;;;;;5084541;28;20901;-73
2022/07/12 06:46:59;;;;;;;6.07;4.30;;;18.90;75.10;;;;;;5087792;28;20504;-74
2022/07/12 06:49:25;;;;;;;7.17;4.10;;;18.90;75.10;;;;;;5087573;28;20755;-74
2022/07/12 06:51:51;;;;;;;6.60;3.70;;;18.90;75.10;;;;;;5077339;28;20427;-76
2022/07/12 06:54:17;;;;;;;5.60;3.97;;;18.90;74.80;;;;;;5083581;28;20460;-75
2022/07/12 06:56:42;;;;;;;4.93;3.37;;;19.00;74.60;;;;;;5081610;28;20186;-74
2022/07/12 06:59:10;;;;;;;9.30;4.30;;;19.00;74.50;;;;;;5085257;28;20698;-75
2022/07/12 07:01:37;;;;;;;7.23;3.87;;;19.10;74.30;;;;;;5081598;28;20194;-73
2022/07/12 07:04:03;;;;;;;5.90;3.50;;;19.20;74.20;;;;;;5082753;28;20467;-75
2022/07/12 07:06:28;;;;;;;4.30;2.97;;;19.20;73.30;;;;;;5066194;28;20429;-72
2022/07/12 07:08:54;;;;;;;9.47;3.97;;;19.40;73.00;;;;;;5083628;28;20433;-75
2022/07/12 07:11:20;;;;;;;5.43;3.70;;;19.50;73.00;;;;;;5077033;28;20186;-74
2022/07/12 07:13:45;;;;;;;4.43;3.23;;;19.50;72.60;;;;;;5086574;28;20374;-74
2022/07/12 07:16:11;;;;;;;5.90;3.37;;;19.50;72.10;;;;;;5081080;28;20180;-74
2022/07/12 07:18:37;;;;;;;3.80;3.23;;;19.50;72.10;;;;;;5089345;28;20260;-72
2022/07/12 07:21:02;;;;;;;4.10;3.07;;;19.50;72.00;;;;;;5078798;28;20183;-73
2022/07/12 07:23:28;;;;;;;6.90;4.10;;;19.60;71.70;;;;;;5079289;28;20208;-74
2022/07/12 07:25:53;;;;;;;10.90;3.57;;;19.70;71.70;;;;;;5087328;28;20219;-72
2022/07/12 07:28:19;;;;;;;5.20;3.50;;;19.80;70.80;;;;;;5085418;28;20180;-74
2022/07/12 07:30:54;;;;;;;5.10;2.97;;;19.90;70.70;;;;;;5087173;28;20182;-73
2022/07/12 07:33:24;;;;;;;3.30;2.47;;;20.00;69.70;;;;;;5083405;28;20493;-73
2022/07/12 07:35:51;;;;;;;9.67;2.80;;;19.90;69.50;;;;;;5080605;28;20442;-73
2022/07/12 07:38:18;;;;;;;22.13;6.23;;;20.00;69.80;;;;;;5073641;28;20426;-73
2022/07/12 07:40:45;;;;;;;7.63;3.30;;;20.10;68.50;;;;;;5086607;28;20440;-74
2022/07/12 07:43:11;;;;;;;2.67;2.13;;;20.30;68.20;;;;;;5082495;28;20541;-74
2022/07/12 07:45:36;;;;;;;3.43;2.20;;;20.40;68.30;;;;;;5086649;28;20508;-73
2022/07/12 07:48:03;;;;;;;3.17;1.77;;;20.40;68.20;;;;;;5083275;28;20430;-73
2022/07/12 07:50:29;;;;;;;1.87;1.67;;;20.40;67.70;;;;;;5088569;28;20224;-72
2022/07/12 07:52:55;;;;;;;4.50;1.97;;;20.40;65.80;;;;;;5080110;28;20486;-75
2022/07/12 07:55:21;;;;;;;2.43;1.70;;;20.50;66.40;;;;;;5091462;28;20422;-74
2022/07/12 07:57:47;;;;;;;2.50;1.80;;;20.50;67.50;;;;;;5090659;28;20183;-73
2022/07/12 08:00:13;;;;;;;3.50;2.00;;;20.50;67.70;;;;;;5094279;28;20213;-73
2022/07/12 08:02:41;;;;;;;4.60;1.40;;;20.50;68.20;;;;;;5083084;28;20477;-74
2022/07/12 08:05:07;;;;;;;6.00;1.70;;;20.50;66.90;;;;;;5082062;28;20761;-73
2022/07/12 08:07:33;;;;;;;3.43;2.03;;;20.60;66.70;;;;;;5085915;28;20935;-73
2022/07/12 08:09:58;;;;;;;3.23;2.00;;;20.70;66.70;;;;;;5088577;28;20429;-73
2022/07/12 08:12:24;;;;;;;3.27;1.63;;;20.60;66.60;;;;;;5080112;28;20261;-74
2022/07/12 08:14:50;;;;;;;3.77;1.83;;;20.60;66.90;;;;;;5084121;28;20272;-73
2022/07/12 08:17:15;;;;;;;2.57;1.67;;;20.60;66.30;;;;;;5077050;28;20195;-73
2022/07/12 08:19:41;;;;;;;260.93;35.30;;;20.70;66.60;;;;;;5089727;28;20208;-73
2022/07/12 08:22:06;;;;;;;3.13;1.63;;;20.80;65.60;;;;;;5075551;28;20195;-73
2022/07/12 08:24:32;;;;;;;3.53;1.47;;;20.80;64.70;;;;;;5085949;28;20203;-73
2022/07/12 08:26:57;;;;;;;7.00;1.80;;;20.80;63.90;;;;;;5082565;28;20210;-73
2022/07/12 08:29:23;;;;;;;3.63;1.57;;;20.90;63.90;;;;;;5084177;28;20271;-73
2022/07/12 08:31:49;;;;;;;1.20;1.00;;;20.90;64.40;;;;;;5082247;28;20522;-74
2022/07/12 08:34:14;;;;;;;1.40;1.00;;;20.90;63.20;;;;;;5082287;28;20218;-72
2022/07/12 08:36:40;;;;;;;1.80;0.93;;;20.90;63.20;;;;;;5085191;28;20180;-74
2022/07/12 08:39:05;;;;;;;2.13;0.87;;;20.90;62.50;;;;;;5086530;28;20204;-74
2022/07/12 08:41:31;;;;;;;2.60;1.20;;;21.00;62.20;;;;;;5083864;28;20594;-74
2022/07/12 08:43:57;;;;;;;7.30;1.77;;;21.10;62.80;;;;;;5081367;28;20230;-74
2022/07/12 08:46:22;;;;;;;3.13;1.73;;;21.10;62.90;;;;;;5080720;28;20260;-73
2022/07/12 08:48:48;;;;;;;3.87;2.87;;;21.10;63.50;;;;;;5086373;28;20188;-74
2022/07/12 08:51:19;;;;;;;3.83;2.37;;;21.10;63.50;;;;;;5083431;28;20181;-73
2022/07/12 08:53:45;;;;;;;6.77;1.73;;;21.00;63.50;;;;;;5082149;28;20219;-73
2022/07/12 08:56:31;;;;;;;2.20;1.70;;;21.10;63.50;;;;;;5083167;28;20427;-74
2022/07/12 08:59:15;;;;;;;2.40;1.53;;;21.20;63.50;;;;;;5074924;28;20212;-73
2022/07/12 09:01:51;;;;;;;4.40;2.07;;;21.30;63.80;;;;;;5076372;28;20447;-73
2022/07/12 09:04:27;;;;;;;2.70;1.50;;;21.60;62.90;;;;;;5084073;28;20901;-74
2022/07/12 09:06:52;;;;;;;2.33;1.57;;;21.80;62.30;;;;;;5085306;28;20466;-74
2022/07/12 09:09:28;;;;;;;2.27;1.80;;;21.90;61.70;;;;;;5079119;28;20819;-73
2022/07/12 09:11:54;;;;;;;3.20;1.70;;;21.90;61.60;;;;;;5085693;28;20193;-72
2022/07/12 09:14:20;;;;;;;2.13;1.53;;;21.80;62.00;;;;;;5080970;28;20470;-73
2022/07/12 09:17:12;;;;;;;2.83;1.40;;;22.00;61.70;;;;;;5070263;28;20428;-74
2022/07/12 09:19:38;;;;;;;2.30;1.67;;;22.00;61.60;;;;;;5086123;28;20481;-74
2022/07/12 09:22:13;;;;;;;2.70;1.57;;;22.20;61.50;;;;;;5087227;28;20435;-74
2022/07/12 09:24:38;;;;;;;2.83;1.80;;;22.30;60.90;;;;;;5084396;28;20439;-74
2022/07/12 09:27:05;;;;;;;2.23;1.60;;;22.30;60.90;;;;;;5081597;28;20768;-74
2022/07/12 09:29:32;;;;;;;1.60;1.30;;;22.50;60.00;;;;;;5084852;28;20326;-73
2022/07/12 09:37:42;;;;;;;4.07;1.80;;;22.10;60.30;;;;;;5087745;28;20478;-73
2022/07/12 09:40:09;;;;;;;2.63;1.73;;;22.20;60.30;;;;;;5077576;28;20473;-75
2022/07/12 09:42:35;;;;;;;6.53;1.93;;;22.40;59.90;;;;;;5081922;28;20772;-73
2022/07/12 09:45:01;;;;;;;2.10;1.40;;;22.60;59.20;;;;;;5080724;28;20427;-72
2022/07/12 09:47:27;;;;;;;2.27;1.53;;;22.60;58.40;;;;;;5088817;28;20420;-73
2022/07/12 09:49:53;;;;;;;2.37;1.70;;;22.70;58.20;;;;;;5082803;28;20460;-73
2022/07/12 09:52:24;;;;;;;3.60;1.70;;;22.70;57.80;;;;;;5084919;28;20430;-74
2022/07/12 09:54:52;;;;;;;1.43;1.10;;;22.70;57.70;;;;;;5077445;28;20445;-75
2022/07/12 09:57:39;;;;;;;2.67;1.30;;;22.50;58.50;;;;;;5082588;28;20420;-74
2022/07/12 10:00:08;;;;;;;2.60;1.70;;;22.50;58.70;;;;;;5074796;28;20472;-74
2022/07/12 10:02:35;;;;;;;3.30;1.50;;;22.70;58.20;;;;;;5063271;28;20549;-74
2022/07/12 10:05:04;;;;;;;4.00;1.93;;;22.70;58.40;;;;;;5058897;28;20420;-76
2022/07/12 10:07:31;;;;;;;2.00;1.40;;;22.90;58.00;;;;;;5084081;28;20466;-74
2022/07/12 10:09:57;;;;;;;5.90;1.43;;;22.80;58.00;;;;;;5085920;28;20428;-74
2022/07/12 10:12:23;;;;;;;2.23;1.67;;;23.00;58.10;;;;;;5088266;28;20536;-73
2022/07/12 10:14:57;;;;;;;4.33;1.77;;;23.10;57.60;;;;;;5084572;28;20436;-74
2022/07/12 10:17:24;;;;;;;1.20;1.03;;;23.40;56.80;;;;;;5088131;28;20478;-74
2022/07/12 10:20:22;;;;;;;2.07;1.50;;;24.00;55.70;;;;;;5086659;28;20464;-74
2022/07/12 10:22:48;;;;;;;6.97;1.50;;;24.30;54.20;;;;;;5083966;28;20547;-75
2022/07/12 10:25:26;;;;;;;3.10;1.20;;;24.60;52.40;;;;;;5090705;28;20410;-74
2022/07/12 10:27:52;;;;;;;2.00;1.20;;;24.10;52.60;;;;;;5083753;28;20410;-75
2022/07/12 10:30:19;;;;;;;2.70;1.03;;;24.00;53.70;;;;;;5092180;28;20517;-74
2022/07/12 10:32:46;;;;;;;1.20;1.00;;;24.70;51.70;;;;;;5087440;28;20212;-75
2022/07/12 10:35:20;;;;;;;2.43;1.27;;;24.70;51.60;;;;;;5081495;28;20418;-74
2022/07/12 10:38:07;;;;;;;2.20;1.30;;;24.70;51.60;;;;;;5092404;28;20476;-76
2022/07/12 10:40:36;;;;;;;4.67;1.30;;;24.80;51.40;;;;;;5074019;28;20905;-74
2022/07/12 10:43:04;;;;;;;2.03;1.10;;;25.10;51.00;;;;;;5085432;28;20813;-75
2022/07/12 10:45:40;;;;;;;12.80;3.07;;;25.40;50.20;;;;;;5079050;28;20431;-75
2022/07/12 10:48:08;;;;;;;2.93;1.73;;;25.80;49.10;;;;;;5083262;28;20467;-74
2022/07/12 10:50:45;;;;;;;3.60;1.60;;;26.00;48.30;;;;;;5084766;28;20423;-75
2022/07/12 10:53:37;;;;;;;2.67;1.63;;;25.40;50.10;;;;;;5085897;28;20811;-73
2022/07/12 10:56:03;;;;;;;3.33;1.30;;;25.20;50.50;;;;;;5079085;28;20446;-74
2022/07/12 10:58:41;;;;;;;1.97;1.60;;;24.50;51.80;;;;;;5090191;28;20526;-73
2022/07/12 11:01:17;;;;;;;1.17;0.93;;;24.90;51.60;;;;;;5090798;28;20260;-75
2022/07/12 11:03:50;;;;;;;3.07;1.63;;;24.80;51.00;;;;;;5081749;28;20878;-75
2022/07/12 11:06:24;;;;;;;1.40;1.33;;;24.80;51.60;;;;;;5081020;28;20413;-74
2022/07/12 11:08:59;;;;;;;1.50;1.10;;;25.00;51.00;;;;;;5084591;28;20443;-73
2022/07/12 11:11:30;;;;;;;2.90;1.50;;;24.90;50.90;;;;;;5082923;28;20906;-74
2022/07/12 11:13:57;;;;;;;3.00;1.20;;;24.40;52.40;;;;;;5076029;28;21037;-74
2022/07/12 11:16:24;;;;;;;1.20;1.10;;;24.30;52.40;;;;;;5090020;28;20416;-75
2022/07/12 11:18:50;;;;;;;3.13;1.20;;;24.30;52.40;;;;;;5080273;28;20475;-76
2022/07/12 11:21:16;;;;;;;1.13;1.10;;;24.80;51.70;;;;;;5086728;28;20453;-74
2022/07/12 11:23:42;;;;;;;2.50;1.40;;;24.70;51.00;;;;;;5083819;28;20539;-76
2022/07/12 11:26:09;;;;;;;3.07;1.33;;;24.80;51.70;;;;;;5082409;28;20921;-75
2022/07/12 11:28:34;;;;;;;4.13;1.40;;;25.30;50.90;;;;;;5080536;28;20918;-75
2022/07/12 11:31:07;;;;;;;2.60;1.20;;;25.60;49.70;;;;;;5083824;28;20428;-75
2022/07/12 11:33:36;;;;;;;2.50;1.47;;;25.50;49.70;;;;;;5081486;28;20248;-75
2022/07/12 11:36:05;;;;;;;1.57;1.07;;;25.30;50.70;;;;;;5083072;28;20426;-76
2022/07/12 11:38:31;;;;;;;2.23;1.40;;;24.80;50.90;;;;;;5079046;28;20407;-74
2022/07/12 11:40:58;;;;;;;1.27;1.10;;;24.80;51.20;;;;;;5059726;28;20421;-73
2022/07/12 11:43:25;;;;;;;1.43;1.27;;;25.20;50.60;;;;;;5082700;28;21009;-76
2022/07/12 11:45:51;;;;;;;1.80;1.33;;;25.40;49.90;;;;;;5087710;28;20423;-75
2022/07/12 11:48:17;;;;;;;1.63;1.50;;;25.40;49.10;;;;;;5084414;28;20409;-74
2022/07/12 11:50:44;;;;;;;1.50;1.27;;;25.10;48.70;;;;;;5088003;28;20417;-74
2022/07/12 11:53:24;;;;;;;2.33;1.73;;;25.00;50.20;;;;;;5083757;28;20867;-76
2022/07/12 11:55:57;;;;;;;2.37;1.67;;;25.00;50.20;;;;;;5087200;28;20422;-74
2022/07/12 11:58:25;;;;;;;1.70;1.40;;;24.90;50.20;;;;;;5082631;28;20537;-76
2022/07/12 12:00:52;;;;;;;1.40;1.10;;;24.80;50.10;;;;;;5081042;28;20474;-76
2022/07/12 12:03:18;;;;;;;2.30;1.20;;;24.80;50.20;;;;;;5085304;28;21051;-74
2022/07/12 12:05:46;;;;;;;2.03;1.10;;;25.00;50.20;;;;;;5081963;28;20428;-75
2022/07/12 12:08:14;;;;;;;1.57;1.10;;;25.20;50.90;;;;;;5086709;28;20497;-75
2022/07/12 12:10:41;;;;;;;2.10;1.10;;;25.60;49.10;;;;;;5083136;28;20476;-74
2022/07/12 12:13:15;;;;;;;1.37;1.10;;;25.60;48.50;;;;;;5094122;28;20986;-75
2022/07/12 12:15:48;;;;;;;1.67;1.17;;;25.20;49.00;;;;;;5093659;28;20497;-74
2022/07/12 12:18:13;;;;;;;3.23;1.27;;;25.00;48.70;;;;;;5084238;28;20423;-76
2022/07/12 12:20:43;;;;;;;1.50;1.00;;;25.20;48.60;;;;;;5084764;28;20539;-75
2022/07/12 12:23:18;;;;;;;1.50;1.30;;;25.30;47.50;;;;;;5087622;28;20206;-73
2022/07/12 12:25:45;;;;;;;1.43;0.90;;;25.60;46.90;;;;;;5082182;28;20446;-75
2022/07/12 12:28:11;;;;;;;1.50;1.13;;;25.60;45.50;;;;;;5075540;28;20472;-74
2022/07/12 12:30:48;;;;;;;2.03;1.30;;;25.80;46.10;;;;;;5065107;28;20446;-74
2022/07/12 12:33:37;;;;;;;2.20;1.40;;;25.90;46.60;;;;;;5081693;28;20517;-74
2022/07/12 12:36:19;;;;;;;2.07;1.33;;;26.20;46.30;;;;;;5079975;28;20432;-74
2022/07/12 12:38:45;;;;;;;2.10;1.17;;;26.40;45.50;;;;;;5085550;28;20420;-74
2022/07/12 12:41:12;;;;;;;1.70;1.00;;;26.40;45.50;;;;;;5083641;28;20430;-76
2022/07/12 12:43:38;;;;;;;2.07;1.23;;;26.30;46.10;;;;;;5078538;28;20469;-74
2022/07/12 12:46:04;;;;;;;1.40;1.17;;;26.40;45.80;;;;;;5082113;28;20491;-74
2022/07/12 12:48:31;;;;;;;1.47;1.00;;;26.60;44.50;;;;;;5078936;28;20503;-73
2022/07/12 12:51:18;;;;;;;1.30;1.10;;;26.60;44.20;;;;;;5082682;28;20207;-73
2022/07/12 12:53:43;;;;;;;1.30;0.90;;;26.30;45.70;;;;;;5083860;28;20456;-73
2022/07/12 12:56:14;;;;;;;1.90;1.20;;;26.40;45.90;;;;;;5082380;28;20427;-75